« Back
NWS Peachtree City, Ga » Text Product » ATL Terminal Aerodrome Forecast

Printer-friendly Version
Current Version              Previous Versions:   1  2  3  4  5  6  7  8  9  

Terminal Aerodrome Forecast

FTUS42 KFFC 100542
KATL 100542Z 1006/1112 30006KT P6SM FEW010 BKN050
      TEMPO 1006/1009 3SM TSRA BR BKN010CB
     FM100900 35005KT 5SM -RA BR OVC010
     FM101400 32008KT P6SM VCSH BKN020
     FM102000 35010KT P6SM SCT025 BKN040
     FM110900 04005KT 2SM BR OVC007=

USA.gov is the U.S. government's official web portal to all federal, state and local government web resources and services.